sensor_id;sensor_type;location;lat;lon;timestamp;P1;durP1;ratioP1;P2;durP2;ratioP2
46675;SDS011;32412;51.478;5.694;2023-08-20T00:01:23;11.10;;;6.40;;
46675;SDS011;32412;51.478;5.694;2023-08-20T00:03:52;8.50;;;5.53;;
46675;SDS011;32412;51.478;5.694;2023-08-20T00:06:19;10.43;;;5.90;;
46675;SDS011;32412;51.478;5.694;2023-08-20T00:08:45;9.35;;;5.90;;
46675;SDS011;32412;51.478;5.694;2023-08-20T00:11:11;10.88;;;7.03;;
46675;SDS011;32412;51.478;5.694;2023-08-20T00:13:38;9.02;;;6.30;;
46675;SDS011;32412;51.478;5.694;2023-08-20T00:16:04;13.77;;;6.47;;
46675;SDS011;32412;51.478;5.694;2023-08-20T00:18:30;9.57;;;6.43;;
46675;SDS011;32412;51.478;5.694;2023-08-20T00:20:56;10.07;;;6.35;;
46675;SDS011;32412;51.478;5.694;2023-08-20T00:23:22;11.23;;;6.60;;
46675;SDS011;32412;51.478;5.694;2023-08-20T00:25:48;10.52;;;6.30;;
46675;SDS011;32412;51.478;5.694;2023-08-20T00:28:14;9.77;;;6.32;;
46675;SDS011;32412;51.478;5.694;2023-08-20T00:30:40;11.75;;;7.07;;
46675;SDS011;32412;51.478;5.694;2023-08-20T00:33:06;9.63;;;6.50;;
46675;SDS011;32412;51.478;5.694;2023-08-20T00:35:31;9.30;;;6.28;;
46675;SDS011;32412;51.478;5.694;2023-08-20T00:37:57;9.23;;;5.70;;
46675;SDS011;32412;51.478;5.694;2023-08-20T00:40:23;9.95;;;5.78;;
46675;SDS011;32412;51.478;5.694;2023-08-20T00:42:49;10.25;;;6.03;;
46675;SDS011;32412;51.478;5.694;2023-08-20T00:45:15;9.40;;;6.05;;
46675;SDS011;32412;51.478;5.694;2023-08-20T00:47:44;9.75;;;5.28;;
46675;SDS011;32412;51.478;5.694;2023-08-20T00:50:10;10.07;;;5.85;;
46675;SDS011;32412;51.478;5.694;2023-08-20T00:52:37;11.30;;;6.43;;
46675;SDS011;32412;51.478;5.694;2023-08-20T00:55:07;11.05;;;5.68;;
46675;SDS011;32412;51.478;5.694;2023-08-20T00:57:35;8.80;;;6.15;;
46675;SDS011;32412;51.478;5.694;2023-08-20T01:00:04;10.13;;;6.50;;
46675;SDS011;32412;51.478;5.694;2023-08-20T01:02:34;7.47;;;5.20;;
46675;SDS011;32412;51.478;5.694;2023-08-20T01:05:01;13.00;;;7.00;;
46675;SDS011;32412;51.478;5.694;2023-08-20T01:07:48;11.10;;;6.07;;
46675;SDS011;32412;51.478;5.694;2023-08-20T01:13:05;9.60;;;6.30;;
46675;SDS011;32412;51.478;5.694;2023-08-20T01:15:32;7.72;;;5.65;;
46675;SDS011;32412;51.478;5.694;2023-08-20T01:17:57;11.05;;;6.97;;
46675;SDS011;32412;51.478;5.694;2023-08-20T01:20:25;14.45;;;7.15;;
46675;SDS011;32412;51.478;5.694;2023-08-20T01:23:07;10.10;;;6.57;;
46675;SDS011;32412;51.478;5.694;2023-08-20T01:28:46;8.85;;;6.00;;
46675;SDS011;32412;51.478;5.694;2023-08-20T01:31:12;12.38;;;6.72;;
46675;SDS011;32412;51.478;5.694;2023-08-20T01:33:39;12.30;;;6.90;;
46675;SDS011;32412;51.478;5.694;2023-08-20T01:36:06;9.68;;;5.78;;
46675;SDS011;32412;51.478;5.694;2023-08-20T01:38:35;7.78;;;5.88;;
46675;SDS011;32412;51.478;5.694;2023-08-20T01:41:01;9.77;;;5.93;;
46675;SDS011;32412;51.478;5.694;2023-08-20T01:43:27;9.73;;;6.18;;
46675;SDS011;32412;51.478;5.694;2023-08-20T01:45:53;8.77;;;6.20;;
46675;SDS011;32412;51.478;5.694;2023-08-20T01:48:18;7.95;;;5.53;;
46675;SDS011;32412;51.478;5.694;2023-08-20T01:50:44;8.98;;;5.93;;
46675;SDS011;32412;51.478;5.694;2023-08-20T01:53:11;8.35;;;4.95;;
46675;SDS011;32412;51.478;5.694;2023-08-20T01:55:37;7.72;;;5.72;;
46675;SDS011;32412;51.478;5.694;2023-08-20T01:58:02;7.07;;;5.32;;
46675;SDS011;32412;51.478;5.694;2023-08-20T02:00:28;10.80;;;5.95;;
46675;SDS011;32412;51.478;5.694;2023-08-20T02:02:55;8.00;;;5.25;;
46675;SDS011;32412;51.478;5.694;2023-08-20T02:05:21;8.98;;;5.28;;
46675;SDS011;32412;51.478;5.694;2023-08-20T02:07:47;9.70;;;5.60;;
46675;SDS011;32412;51.478;5.694;2023-08-20T02:10:12;8.90;;;5.68;;
46675;SDS011;32412;51.478;5.694;2023-08-20T02:12:39;9.82;;;5.55;;
46675;SDS011;32412;51.478;5.694;2023-08-20T02:15:05;9.23;;;5.82;;
46675;SDS011;32412;51.478;5.694;2023-08-20T02:17:32;8.55;;;6.05;;
46675;SDS011;32412;51.478;5.694;2023-08-20T02:19:57;9.40;;;5.88;;
46675;SDS011;32412;51.478;5.694;2023-08-20T02:22:23;7.45;;;5.40;;
46675;SDS011;32412;51.478;5.694;2023-08-20T02:24:49;9.05;;;5.32;;
46675;SDS011;32412;51.478;5.694;2023-08-20T02:27:14;7.75;;;5.20;;
46675;SDS011;32412;51.478;5.694;2023-08-20T02:29:40;8.82;;;5.63;;
46675;SDS011;32412;51.478;5.694;2023-08-20T02:32:06;9.45;;;5.68;;
46675;SDS011;32412;51.478;5.694;2023-08-20T02:34:32;10.95;;;5.40;;
46675;SDS011;32412;51.478;5.694;2023-08-20T02:36:57;9.93;;;5.72;;
46675;SDS011;32412;51.478;5.694;2023-08-20T02:39:23;10.68;;;5.75;;
46675;SDS011;32412;51.478;5.694;2023-08-20T02:41:50;9.32;;;5.22;;
46675;SDS011;32412;51.478;5.694;2023-08-20T02:44:15;7.65;;;5.28;;
46675;SDS011;32412;51.478;5.694;2023-08-20T02:46:41;7.53;;;4.68;;
46675;SDS011;32412;51.478;5.694;2023-08-20T02:49:09;8.68;;;5.65;;
46675;SDS011;32412;51.478;5.694;2023-08-20T02:51:35;9.98;;;5.97;;
46675;SDS011;32412;51.478;5.694;2023-08-20T02:54:01;9.05;;;5.68;;
46675;SDS011;32412;51.478;5.694;2023-08-20T02:56:27;9.20;;;5.18;;
46675;SDS011;32412;51.478;5.694;2023-08-20T02:58:52;8.45;;;5.35;;
46675;SDS011;32412;51.478;5.694;2023-08-20T03:01:19;8.35;;;5.18;;
46675;SDS011;32412;51.478;5.694;2023-08-20T03:03:48;9.48;;;4.82;;
46675;SDS011;32412;51.478;5.694;2023-08-20T03:06:14;8.65;;;4.93;;
46675;SDS011;32412;51.478;5.694;2023-08-20T03:08:40;7.03;;;4.80;;
46675;SDS011;32412;51.478;5.694;2023-08-20T03:11:06;7.05;;;5.25;;
46675;SDS011;32412;51.478;5.694;2023-08-20T03:13:32;7.13;;;5.15;;
46675;SDS011;32412;51.478;5.694;2023-08-20T03:15:57;8.75;;;5.82;;
46675;SDS011;32412;51.478;5.694;2023-08-20T03:18:23;7.65;;;5.20;;
46675;SDS011;32412;51.478;5.694;2023-08-20T03:20:49;7.50;;;5.03;;
46675;SDS011;32412;51.478;5.694;2023-08-20T03:23:14;8.65;;;4.97;;
46675;SDS011;32412;51.478;5.694;2023-08-20T03:25:40;9.40;;;5.30;;
46675;SDS011;32412;51.478;5.694;2023-08-20T03:28:06;9.23;;;5.30;;
46675;SDS011;32412;51.478;5.694;2023-08-20T03:30:31;8.10;;;5.40;;
46675;SDS011;32412;51.478;5.694;2023-08-20T03:32:58;9.48;;;6.05;;
46675;SDS011;32412;51.478;5.694;2023-08-20T03:35:24;9.38;;;5.47;;
46675;SDS011;32412;51.478;5.694;2023-08-20T03:37:52;10.95;;;6.32;;
46675;SDS011;32412;51.478;5.694;2023-08-20T03:40:19;8.13;;;5.25;;
46675;SDS011;32412;51.478;5.694;2023-08-20T03:42:45;7.05;;;5.30;;
46675;SDS011;32412;51.478;5.694;2023-08-20T03:45:14;9.68;;;5.22;;
46675;SDS011;32412;51.478;5.694;2023-08-20T03:47:39;9.82;;;5.78;;
46675;SDS011;32412;51.478;5.694;2023-08-20T03:50:07;7.93;;;5.05;;
46675;SDS011;32412;51.478;5.694;2023-08-20T03:52:33;8.95;;;4.88;;
46675;SDS011;32412;51.478;5.694;2023-08-20T03:54:59;7.97;;;5.00;;
46675;SDS011;32412;51.478;5.694;2023-08-20T03:57:24;5.93;;;4.28;;
46675;SDS011;32412;51.478;5.694;2023-08-20T03:59:50;7.63;;;4.60;;
46675;SDS011;32412;51.478;5.694;2023-08-20T04:02:15;6.50;;;4.40;;
46675;SDS011;32412;51.478;5.694;2023-08-20T04:04:41;7.13;;;4.65;;
46675;SDS011;32412;51.478;5.694;2023-08-20T04:07:07;7.45;;;4.65;;
46675;SDS011;32412;51.478;5.694;2023-08-20T04:09:33;7.07;;;5.03;;
46675;SDS011;32412;51.478;5.694;2023-08-20T04:12:00;7.78;;;4.82;;
46675;SDS011;32412;51.478;5.694;2023-08-20T04:14:25;7.78;;;5.60;;
46675;SDS011;32412;51.478;5.694;2023-08-20T04:16:51;8.20;;;4.72;;
46675;SDS011;32412;51.478;5.694;2023-08-20T04:19:16;6.97;;;4.90;;
46675;SDS011;32412;51.478;5.694;2023-08-20T04:21:45;10.77;;;5.10;;
46675;SDS011;32412;51.478;5.694;2023-08-20T04:24:11;8.00;;;5.18;;
46675;SDS011;32412;51.478;5.694;2023-08-20T04:26:36;8.85;;;5.43;;
46675;SDS011;32412;51.478;5.694;2023-08-20T04:29:02;9.45;;;5.10;;
46675;SDS011;32412;51.478;5.694;2023-08-20T04:31:28;11.57;;;5.32;;
46675;SDS011;32412;51.478;5.694;2023-08-20T04:33:54;6.70;;;4.47;;
46675;SDS011;32412;51.478;5.694;2023-08-20T04:36:20;6.80;;;4.60;;
46675;SDS011;32412;51.478;5.694;2023-08-20T04:38:45;8.57;;;4.85;;
46675;SDS011;32412;51.478;5.694;2023-08-20T04:41:11;8.00;;;4.68;;
46675;SDS011;32412;51.478;5.694;2023-08-20T04:43:37;7.82;;;4.95;;
46675;SDS011;32412;51.478;5.694;2023-08-20T04:46:02;7.55;;;4.95;;
46675;SDS011;32412;51.478;5.694;2023-08-20T04:48:28;7.45;;;4.90;;
46675;SDS011;32412;51.478;5.694;2023-08-20T04:50:54;7.57;;;5.18;;
46675;SDS011;32412;51.478;5.694;2023-08-20T04:53:19;8.27;;;4.97;;
46675;SDS011;32412;51.478;5.694;2023-08-20T04:55:45;9.13;;;5.20;;
46675;SDS011;32412;51.478;5.694;2023-08-20T04:58:10;10.63;;;4.75;;
46675;SDS011;32412;51.478;5.694;2023-08-20T05:00:36;8.90;;;5.28;;
46675;SDS011;32412;51.478;5.694;2023-08-20T05:03:01;8.65;;;5.13;;
46675;SDS011;32412;51.478;5.694;2023-08-20T05:05:27;8.60;;;5.28;;
46675;SDS011;32412;51.478;5.694;2023-08-20T05:07:53;7.85;;;4.82;;
46675;SDS011;32412;51.478;5.694;2023-08-20T05:10:18;11.05;;;4.78;;
46675;SDS011;32412;51.478;5.694;2023-08-20T05:12:45;7.50;;;5.00;;
46675;SDS011;32412;51.478;5.694;2023-08-20T05:15:10;7.32;;;4.53;;
46675;SDS011;32412;51.478;5.694;2023-08-20T05:17:36;12.65;;;5.18;;
46675;SDS011;32412;51.478;5.694;2023-08-20T05:20:05;6.85;;;4.85;;
46675;SDS011;32412;51.478;5.694;2023-08-20T05:22:34;6.20;;;4.38;;
46675;SDS011;32412;51.478;5.694;2023-08-20T05:25:00;8.02;;;5.40;;
46675;SDS011;32412;51.478;5.694;2023-08-20T05:27:28;9.05;;;4.85;;
46675;SDS011;32412;51.478;5.694;2023-08-20T05:29:54;10.05;;;6.00;;
46675;SDS011;32412;51.478;5.694;2023-08-20T05:32:19;9.55;;;4.80;;
46675;SDS011;32412;51.478;5.694;2023-08-20T05:34:45;7.90;;;5.28;;
46675;SDS011;32412;51.478;5.694;2023-08-20T05:37:11;8.90;;;4.80;;
46675;SDS011;32412;51.478;5.694;2023-08-20T05:39:37;8.90;;;5.05;;
46675;SDS011;32412;51.478;5.694;2023-08-20T05:42:05;9.93;;;5.07;;
46675;SDS011;32412;51.478;5.694;2023-08-20T05:44:31;7.97;;;4.70;;
46675;SDS011;32412;51.478;5.694;2023-08-20T05:46:57;6.75;;;4.78;;
46675;SDS011;32412;51.478;5.694;2023-08-20T05:49:23;6.85;;;4.90;;
46675;SDS011;32412;51.478;5.694;2023-08-20T05:51:49;9.30;;;5.05;;
46675;SDS011;32412;51.478;5.694;2023-08-20T05:54:15;7.38;;;5.07;;
46675;SDS011;32412;51.478;5.694;2023-08-20T05:56:40;6.50;;;4.80;;
46675;SDS011;32412;51.478;5.694;2023-08-20T05:59:06;7.80;;;4.75;;
46675;SDS011;32412;51.478;5.694;2023-08-20T06:01:31;7.85;;;4.63;;
46675;SDS011;32412;51.478;5.694;2023-08-20T06:03:57;9.52;;;5.35;;
46675;SDS011;32412;51.478;5.694;2023-08-20T06:06:23;6.00;;;4.75;;
46675;SDS011;32412;51.478;5.694;2023-08-20T06:08:48;6.97;;;4.90;;
46675;SDS011;32412;51.478;5.694;2023-08-20T06:11:14;7.57;;;4.95;;
46675;SDS011;32412;51.478;5.694;2023-08-20T06:13:40;5.88;;;4.60;;
46675;SDS011;32412;51.478;5.694;2023-08-20T06:16:06;9.18;;;4.95;;
46675;SDS011;32412;51.478;5.694;2023-08-20T06:18:32;7.10;;;4.97;;
46675;SDS011;32412;51.478;5.694;2023-08-20T06:20:58;7.72;;;4.75;;
46675;SDS011;32412;51.478;5.694;2023-08-20T06:23:23;5.95;;;3.55;;
46675;SDS011;32412;51.478;5.694;2023-08-20T06:25:52;5.65;;;3.95;;
46675;SDS011;32412;51.478;5.694;2023-08-20T06:28:18;7.18;;;3.92;;
46675;SDS011;32412;51.478;5.694;2023-08-20T06:30:44;5.70;;;3.28;;
46675;SDS011;32412;51.478;5.694;2023-08-20T06:33:10;5.30;;;2.90;;
46675;SDS011;32412;51.478;5.694;2023-08-20T06:35:36;3.45;;;2.83;;
46675;SDS011;32412;51.478;5.694;2023-08-20T06:38:02;4.22;;;2.88;;
46675;SDS011;32412;51.478;5.694;2023-08-20T06:40:28;2.67;;;2.42;;
46675;SDS011;32412;51.478;5.694;2023-08-20T06:42:54;2.92;;;1.80;;
46675;SDS011;32412;51.478;5.694;2023-08-20T06:45:19;4.28;;;2.30;;
46675;SDS011;32412;51.478;5.694;2023-08-20T06:47:45;5.35;;;1.38;;
46675;SDS011;32412;51.478;5.694;2023-08-20T06:50:11;4.40;;;1.42;;
46675;SDS011;32412;51.478;5.694;2023-08-20T06:52:36;1.80;;;1.20;;
46675;SDS011;32412;51.478;5.694;2023-08-20T06:55:02;3.60;;;1.33;;
46675;SDS011;32412;51.478;5.694;2023-08-20T06:57:29;2.35;;;0.90;;
46675;SDS011;32412;51.478;5.694;2023-08-20T06:59:54;2.30;;;0.70;;
46675;SDS011;32412;51.478;5.694;2023-08-20T07:02:20;1.38;;;0.80;;
46675;SDS011;32412;51.478;5.694;2023-08-20T07:04:45;2.97;;;0.95;;
46675;SDS011;32412;51.478;5.694;2023-08-20T07:07:12;0.95;;;0.70;;
46675;SDS011;32412;51.478;5.694;2023-08-20T07:09:38;1.67;;;0.85;;
46675;SDS011;32412;51.478;5.694;2023-08-20T07:12:04;2.00;;;0.98;;
46675;SDS011;32412;51.478;5.694;2023-08-20T07:14:30;2.00;;;1.00;;
46675;SDS011;32412;51.478;5.694;2023-08-20T07:16:56;1.55;;;1.00;;
46675;SDS011;32412;51.478;5.694;2023-08-20T07:19:21;2.33;;;0.85;;
46675;SDS011;32412;51.478;5.694;2023-08-20T07:21:47;3.13;;;1.00;;
46675;SDS011;32412;51.478;5.694;2023-08-20T07:24:13;2.97;;;0.77;;
46675;SDS011;32412;51.478;5.694;2023-08-20T07:26:38;1.67;;;1.17;;
46675;SDS011;32412;51.478;5.694;2023-08-20T07:29:04;2.38;;;0.73;;
46675;SDS011;32412;51.478;5.694;2023-08-20T07:31:31;4.03;;;0.90;;
46675;SDS011;32412;51.478;5.694;2023-08-20T07:33:58;3.90;;;1.20;;
46675;SDS011;32412;51.478;5.694;2023-08-20T07:36:25;1.27;;;0.80;;
46675;SDS011;32412;51.478;5.694;2023-08-20T07:38:51;0.70;;;0.70;;
46675;SDS011;32412;51.478;5.694;2023-08-20T07:41:18;1.40;;;0.70;;
46675;SDS011;32412;51.478;5.694;2023-08-20T07:43:47;1.75;;;0.90;;
46675;SDS011;32412;51.478;5.694;2023-08-20T07:46:14;3.20;;;1.00;;
46675;SDS011;32412;51.478;5.694;2023-08-20T07:48:40;2.60;;;0.70;;
46675;SDS011;32412;51.478;5.694;2023-08-20T07:51:06;2.75;;;0.60;;
46675;SDS011;32412;51.478;5.694;2023-08-20T07:53:32;2.65;;;0.85;;
46675;SDS011;32412;51.478;5.694;2023-08-20T07:55:58;2.15;;;0.55;;
46675;SDS011;32412;51.478;5.694;2023-08-20T07:58:25;5.00;;;2.42;;
46675;SDS011;32412;51.478;5.694;2023-08-20T08:00:50;9.43;;;3.30;;
46675;SDS011;32412;51.478;5.694;2023-08-20T08:03:16;2.85;;;1.17;;
46675;SDS011;32412;51.478;5.694;2023-08-20T08:05:51;1.55;;;0.82;;
46675;SDS011;32412;51.478;5.694;2023-08-20T08:08:18;1.60;;;0.98;;
46675;SDS011;32412;51.478;5.694;2023-08-20T08:10:44;4.20;;;0.90;;
46675;SDS011;32412;51.478;5.694;2023-08-20T08:13:11;2.70;;;1.05;;
46675;SDS011;32412;51.478;5.694;2023-08-20T08:15:37;1.42;;;1.27;;
46675;SDS011;32412;51.478;5.694;2023-08-20T08:18:03;2.45;;;1.10;;
46675;SDS011;32412;51.478;5.694;2023-08-20T08:20:29;1.17;;;1.10;;
46675;SDS011;32412;51.478;5.694;2023-08-20T08:22:55;3.15;;;1.00;;
46675;SDS011;32412;51.478;5.694;2023-08-20T08:25:20;2.83;;;1.27;;
46675;SDS011;32412;51.478;5.694;2023-08-20T08:27:46;4.68;;;1.15;;
46675;SDS011;32412;51.478;5.694;2023-08-20T08:30:12;2.58;;;0.77;;
46675;SDS011;32412;51.478;5.694;2023-08-20T08:32:37;2.15;;;0.90;;
46675;SDS011;32412;51.478;5.694;2023-08-20T08:35:03;3.72;;;1.02;;
46675;SDS011;32412;51.478;5.694;2023-08-20T08:37:29;2.65;;;1.10;;
46675;SDS011;32412;51.478;5.694;2023-08-20T08:39:55;3.05;;;1.23;;
46675;SDS011;32412;51.478;5.694;2023-08-20T08:42:21;1.30;;;1.10;;
46675;SDS011;32412;51.478;5.694;2023-08-20T08:44:48;2.00;;;1.10;;
46675;SDS011;32412;51.478;5.694;2023-08-20T08:47:18;1.92;;;0.90;;
46675;SDS011;32412;51.478;5.694;2023-08-20T08:49:44;2.28;;;1.50;;
46675;SDS011;32412;51.478;5.694;2023-08-20T08:52:11;2.85;;;1.45;;
46675;SDS011;32412;51.478;5.694;2023-08-20T08:54:37;3.05;;;1.73;;
46675;SDS011;32412;51.478;5.694;2023-08-20T08:57:04;2.30;;;1.45;;
46675;SDS011;32412;51.478;5.694;2023-08-20T08:59:30;3.17;;;2.40;;
46675;SDS011;32412;51.478;5.694;2023-08-20T09:01:57;6.07;;;1.95;;
46675;SDS011;32412;51.478;5.694;2023-08-20T09:04:23;3.78;;;1.73;;
46675;SDS011;32412;51.478;5.694;2023-08-20T09:09:19;4.22;;;2.42;;
46675;SDS011;32412;51.478;5.694;2023-08-20T09:11:46;5.78;;;1.77;;
46675;SDS011;32412;51.478;5.694;2023-08-20T09:14:27;1.88;;;1.27;;
46675;SDS011;32412;51.478;5.694;2023-08-20T09:16:58;3.50;;;2.05;;
46675;SDS011;32412;51.478;5.694;2023-08-20T09:19:45;5.95;;;2.25;;
46675;SDS011;32412;51.478;5.694;2023-08-20T09:24:42;3.25;;;1.58;;
46675;SDS011;32412;51.478;5.694;2023-08-20T09:32:23;4.50;;;1.30;;
46675;SDS011;32412;51.478;5.694;2023-08-20T09:34:53;3.28;;;1.88;;
46675;SDS011;32412;51.478;5.694;2023-08-20T09:37:22;3.30;;;1.45;;
46675;SDS011;32412;51.478;5.694;2023-08-20T09:39:48;2.72;;;1.20;;
46675;SDS011;32412;51.478;5.694;2023-08-20T09:42:14;2.00;;;1.20;;
46675;SDS011;32412;51.478;5.694;2023-08-20T09:44:41;1.65;;;1.00;;
46675;SDS011;32412;51.478;5.694;2023-08-20T09:47:09;1.60;;;0.93;;
46675;SDS011;32412;51.478;5.694;2023-08-20T09:49:37;2.65;;;1.00;;
46675;SDS011;32412;51.478;5.694;2023-08-20T09:52:04;1.20;;;1.10;;
46675;SDS011;32412;51.478;5.694;2023-08-20T09:54:35;3.90;;;1.38;;
46675;SDS011;32412;51.478;5.694;2023-08-20T10:00:01;1.15;;;0.80;;
46675;SDS011;32412;51.478;5.694;2023-08-20T10:02:30;1.48;;;1.20;;
46675;SDS011;32412;51.478;5.694;2023-08-20T10:04:57;2.83;;;1.40;;
46675;SDS011;32412;51.478;5.694;2023-08-20T10:07:26;1.52;;;1.17;;
46675;SDS011;32412;51.478;5.694;2023-08-20T10:10:07;1.30;;;0.90;;
46675;SDS011;32412;51.478;5.694;2023-08-20T10:12:41;1.55;;;0.90;;
46675;SDS011;32412;51.478;5.694;2023-08-20T10:15:13;0.80;;;0.80;;
46675;SDS011;32412;51.478;5.694;2023-08-20T10:17:41;1.17;;;0.63;;
46675;SDS011;32412;51.478;5.694;2023-08-20T10:20:09;1.58;;;0.93;;
46675;SDS011;32412;51.478;5.694;2023-08-20T10:25:05;2.15;;;0.70;;
46675;SDS011;32412;51.478;5.694;2023-08-20T10:27:46;2.35;;;1.00;;
46675;SDS011;32412;51.478;5.694;2023-08-20T10:30:33;0.80;;;0.75;;
46675;SDS011;32412;51.478;5.694;2023-08-20T10:32:58;1.33;;;0.73;;
46675;SDS011;32412;51.478;5.694;2023-08-20T10:35:27;1.08;;;0.75;;
46675;SDS011;32412;51.478;5.694;2023-08-20T10:40:49;1.10;;;0.90;;
46675;SDS011;32412;51.478;5.694;2023-08-20T10:49:01;0.80;;;0.57;;
46675;SDS011;32412;51.478;5.694;2023-08-20T10:51:37;0.57;;;0.40;;
46675;SDS011;32412;51.478;5.694;2023-08-20T10:59:15;0.75;;;0.40;;
46675;SDS011;32412;51.478;5.694;2023-08-20T11:01:46;0.40;;;0.40;;
46675;SDS011;32412;51.478;5.694;2023-08-20T11:04:14;1.30;;;0.52;;
46675;SDS011;32412;51.478;5.694;2023-08-20T11:06:41;0.45;;;0.40;;
46675;SDS011;32412;51.478;5.694;2023-08-20T11:09:07;0.95;;;0.40;;
46675;SDS011;32412;51.478;5.694;2023-08-20T11:11:33;1.23;;;0.55;;
46675;SDS011;32412;51.478;5.694;2023-08-20T11:14:04;0.98;;;0.60;;
46675;SDS011;32412;51.478;5.694;2023-08-20T11:16:31;1.87;;;0.53;;
46675;SDS011;32412;51.478;5.694;2023-08-20T11:18:57;0.43;;;0.38;;
46675;SDS011;32412;51.478;5.694;2023-08-20T11:21:23;0.52;;;0.50;;
46675;SDS011;32412;51.478;5.694;2023-08-20T11:23:48;0.47;;;0.38;;
46675;SDS011;32412;51.478;5.694;2023-08-20T11:26:14;0.30;;;0.30;;
46675;SDS011;32412;51.478;5.694;2023-08-20T11:28:44;0.40;;;0.40;;
46675;SDS011;32412;51.478;5.694;2023-08-20T11:31:11;1.27;;;0.52;;
46675;SDS011;32412;51.478;5.694;2023-08-20T11:33:37;0.90;;;0.43;;
46675;SDS011;32412;51.478;5.694;2023-08-20T11:36:03;0.40;;;0.35;;
46675;SDS011;32412;51.478;5.694;2023-08-20T11:38:30;0.57;;;0.50;;
46675;SDS011;32412;51.478;5.694;2023-08-20T11:40:57;0.50;;;0.50;;
46675;SDS011;32412;51.478;5.694;2023-08-20T11:43:24;1.10;;;0.80;;
46675;SDS011;32412;51.478;5.694;2023-08-20T11:45:53;1.27;;;0.95;;
46675;SDS011;32412;51.478;5.694;2023-08-20T11:48:19;1.10;;;0.65;;
46675;SDS011;32412;51.478;5.694;2023-08-20T11:50:46;5.43;;;3.33;;
46675;SDS011;32412;51.478;5.694;2023-08-20T11:53:12;1.38;;;0.77;;
46675;SDS011;32412;51.478;5.694;2023-08-20T11:55:41;1.13;;;0.80;;
46675;SDS011;32412;51.478;5.694;2023-08-20T11:58:13;1.90;;;0.57;;
46675;SDS011;32412;51.478;5.694;2023-08-20T12:00:39;0.68;;;0.50;;
46675;SDS011;32412;51.478;5.694;2023-08-20T12:03:05;0.30;;;0.30;;
46675;SDS011;32412;51.478;5.694;2023-08-20T12:05:32;1.55;;;0.95;;
46675;SDS011;32412;51.478;5.694;2023-08-20T12:07:59;0.30;;;0.30;;
46675;SDS011;32412;51.478;5.694;2023-08-20T12:10:26;0.75;;;0.43;;
46675;SDS011;32412;51.478;5.694;2023-08-20T12:12:54;0.60;;;0.60;;
46675;SDS011;32412;51.478;5.694;2023-08-20T12:15:21;1.67;;;0.50;;
46675;SDS011;32412;51.478;5.694;2023-08-20T12:18:04;0.40;;;0.30;;
46675;SDS011;32412;51.478;5.694;2023-08-20T12:20:31;0.93;;;0.63;;
46675;SDS011;32412;51.478;5.694;2023-08-20T12:23:01;0.38;;;0.38;;
46675;SDS011;32412;51.478;5.694;2023-08-20T12:25:32;0.75;;;0.57;;
46675;SDS011;32412;51.478;5.694;2023-08-20T12:28:02;0.20;;;0.20;;
46675;SDS011;32412;51.478;5.694;2023-08-20T12:30:32;0.55;;;0.52;;
46675;SDS011;32412;51.478;5.694;2023-08-20T12:33:00;1.15;;;0.50;;
46675;SDS011;32412;51.478;5.694;2023-08-20T12:35:25;0.70;;;0.50;;
46675;SDS011;32412;51.478;5.694;2023-08-20T12:37:51;0.90;;;0.47;;
46675;SDS011;32412;51.478;5.694;2023-08-20T12:40:17;1.02;;;0.50;;
46675;SDS011;32412;51.478;5.694;2023-08-20T12:42:43;0.43;;;0.43;;
46675;SDS011;32412;51.478;5.694;2023-08-20T12:45:08;1.02;;;0.43;;
46675;SDS011;32412;51.478;5.694;2023-08-20T12:47:35;0.38;;;0.38;;
46675;SDS011;32412;51.478;5.694;2023-08-20T12:50:01;1.77;;;0.70;;
46675;SDS011;32412;51.478;5.694;2023-08-20T12:52:29;0.47;;;0.47;;
46675;SDS011;32412;51.478;5.694;2023-08-20T12:54:55;0.30;;;0.30;;
46675;SDS011;32412;51.478;5.694;2023-08-20T12:57:20;0.52;;;0.40;;
46675;SDS011;32412;51.478;5.694;2023-08-20T12:59:46;0.30;;;0.30;;
46675;SDS011;32412;51.478;5.694;2023-08-20T13:02:12;0.73;;;0.35;;
46675;SDS011;32412;51.478;5.694;2023-08-20T13:04:37;1.17;;;0.63;;
46675;SDS011;32412;51.478;5.694;2023-08-20T13:07:03;0.50;;;0.50;;
46675;SDS011;32412;51.478;5.694;2023-08-20T13:09:29;0.50;;;0.35;;
46675;SDS011;32412;51.478;5.694;2023-08-20T13:11:56;1.85;;;0.40;;
46675;SDS011;32412;51.478;5.694;2023-08-20T13:14:25;2.10;;;0.45;;
46675;SDS011;32412;51.478;5.694;2023-08-20T13:16:51;1.67;;;0.40;;
46675;SDS011;32412;51.478;5.694;2023-08-20T13:19:17;0.40;;;0.40;;
46675;SDS011;32412;51.478;5.694;2023-08-20T13:21:43;0.68;;;0.40;;
46675;SDS011;32412;51.478;5.694;2023-08-20T13:24:08;0.30;;;0.30;;
46675;SDS011;32412;51.478;5.694;2023-08-20T13:26:34;0.85;;;0.60;;
46675;SDS011;32412;51.478;5.694;2023-08-20T13:29:00;1.20;;;0.60;;
46675;SDS011;32412;51.478;5.694;2023-08-20T13:31:25;0.40;;;0.30;;
46675;SDS011;32412;51.478;5.694;2023-08-20T13:33:51;0.73;;;0.40;;
46675;SDS011;32412;51.478;5.694;2023-08-20T13:36:16;1.70;;;0.40;;
46675;SDS011;32412;51.478;5.694;2023-08-20T13:38:42;2.35;;;0.68;;
46675;SDS011;32412;51.478;5.694;2023-08-20T13:41:08;0.57;;;0.30;;
46675;SDS011;32412;51.478;5.694;2023-08-20T13:43:34;2.38;;;0.30;;
46675;SDS011;32412;51.478;5.694;2023-08-20T13:46:00;0.40;;;0.40;;
46675;SDS011;32412;51.478;5.694;2023-08-20T13:48:26;0.30;;;0.30;;
46675;SDS011;32412;51.478;5.694;2023-08-20T13:50:51;1.08;;;0.60;;
46675;SDS011;32412;51.478;5.694;2023-08-20T13:53:17;0.20;;;0.20;;
46675;SDS011;32412;51.478;5.694;2023-08-20T13:55:43;0.43;;;0.35;;
46675;SDS011;32412;51.478;5.694;2023-08-20T13:58:08;0.20;;;0.20;;
46675;SDS011;32412;51.478;5.694;2023-08-20T14:00:34;0.30;;;0.30;;
46675;SDS011;32412;51.478;5.694;2023-08-20T14:02:59;1.63;;;0.30;;
46675;SDS011;32412;51.478;5.694;2023-08-20T14:05:25;1.52;;;0.30;;
46675;SDS011;32412;51.478;5.694;2023-08-20T14:07:51;0.45;;;0.40;;
46675;SDS011;32412;51.478;5.694;2023-08-20T14:10:16;0.65;;;0.30;;
46675;SDS011;32412;51.478;5.694;2023-08-20T14:12:42;0.40;;;0.40;;
46675;SDS011;32412;51.478;5.694;2023-08-20T14:15:08;2.10;;;0.40;;
46675;SDS011;32412;51.478;5.694;2023-08-20T14:17:34;0.73;;;0.30;;
46675;SDS011;32412;51.478;5.694;2023-08-20T14:19:59;0.30;;;0.30;;
46675;SDS011;32412;51.478;5.694;2023-08-20T14:22:25;1.13;;;0.40;;
46675;SDS011;32412;51.478;5.694;2023-08-20T14:24:51;0.73;;;0.50;;
46675;SDS011;32412;51.478;5.694;2023-08-20T14:27:17;0.52;;;0.30;;
46675;SDS011;32412;51.478;5.694;2023-08-20T14:29:42;0.75;;;0.40;;
46675;SDS011;32412;51.478;5.694;2023-08-20T14:32:08;1.40;;;0.40;;
46675;SDS011;32412;51.478;5.694;2023-08-20T14:34:34;0.95;;;0.50;;
46675;SDS011;32412;51.478;5.694;2023-08-20T14:37:00;1.13;;;0.40;;
46675;SDS011;32412;51.478;5.694;2023-08-20T14:39:26;0.63;;;0.30;;
46675;SDS011;32412;51.478;5.694;2023-08-20T14:41:51;0.40;;;0.20;;
46675;SDS011;32412;51.478;5.694;2023-08-20T14:44:17;0.32;;;0.30;;
46675;SDS011;32412;51.478;5.694;2023-08-20T14:46:46;0.50;;;0.45;;
46675;SDS011;32412;51.478;5.694;2023-08-20T14:49:11;1.15;;;0.50;;
46675;SDS011;32412;51.478;5.694;2023-08-20T14:51:37;1.88;;;0.70;;
46675;SDS011;32412;51.478;5.694;2023-08-20T14:54:03;0.90;;;0.50;;
46675;SDS011;32412;51.478;5.694;2023-08-20T14:56:29;1.02;;;0.50;;
46675;SDS011;32412;51.478;5.694;2023-08-20T14:58:54;0.95;;;0.60;;
46675;SDS011;32412;51.478;5.694;2023-08-20T15:01:20;0.63;;;0.50;;
46675;SDS011;32412;51.478;5.694;2023-08-20T15:03:46;0.65;;;0.40;;
46675;SDS011;32412;51.478;5.694;2023-08-20T15:06:12;0.55;;;0.50;;
46675;SDS011;32412;51.478;5.694;2023-08-20T15:08:39;0.40;;;0.40;;
46675;SDS011;32412;51.478;5.694;2023-08-20T15:11:05;0.65;;;0.50;;
46675;SDS011;32412;51.478;5.694;2023-08-20T15:13:31;0.38;;;0.38;;
46675;SDS011;32412;51.478;5.694;2023-08-20T15:15:57;2.92;;;0.40;;
46675;SDS011;32412;51.478;5.694;2023-08-20T15:18:23;0.98;;;0.52;;